createdAt,value
2019-05-21T00:02:18.497Z,10.90
2019-05-21T00:04:47.897Z,10.90
2019-05-21T00:07:17.104Z,10.80
2019-05-21T00:09:46.261Z,10.80
2019-05-21T00:12:15.812Z,10.80
2019-05-21T00:14:44.989Z,10.70
2019-05-21T00:17:14.022Z,10.70
2019-05-21T00:19:42.801Z,10.80
2019-05-21T00:22:11.901Z,10.70
2019-05-21T00:24:40.882Z,10.80
2019-05-21T00:27:09.946Z,10.80
2019-05-21T00:30:14.671Z,10.70
2019-05-21T00:33:19.960Z,10.80
2019-05-21T00:36:27.634Z,10.70
2019-05-21T00:39:33.077Z,10.80
2019-05-21T00:42:01.488Z,10.70
2019-05-21T00:44:36.122Z,10.70
2019-05-21T00:47:08.092Z,10.80
2019-05-21T00:49:37.286Z,10.80
2019-05-21T00:52:08.995Z,10.70
2019-05-21T00:54:38.140Z,10.80
2019-05-21T00:57:07.062Z,10.80
2019-05-21T00:59:36.298Z,10.70
2019-05-21T01:02:05.512Z,10.70
2019-05-21T01:04:34.682Z,10.70
2019-05-21T01:07:03.949Z,10.70
2019-05-21T01:09:32.941Z,10.80
2019-05-21T01:12:02.139Z,10.80
2019-05-21T01:14:31.067Z,10.80
2019-05-21T01:17:00.226Z,10.70
2019-05-21T01:19:29.485Z,10.70
2019-05-21T01:21:59.452Z,10.70
2019-05-21T01:24:28.509Z,10.70
2019-05-21T01:26:57.694Z,10.70
2019-05-21T01:29:27.090Z,10.70
2019-05-21T01:31:56.486Z,10.70
2019-05-21T01:34:25.844Z,10.70
2019-05-21T01:36:55.510Z,10.70
2019-05-21T01:39:24.293Z,10.70
2019-05-21T01:41:53.445Z,10.70
2019-05-21T01:44:22.506Z,10.70
2019-05-21T01:46:51.703Z,10.70
2019-05-21T01:49:20.884Z,10.70
2019-05-21T01:51:50.083Z,10.60
2019-05-21T01:54:19.176Z,10.60
2019-05-21T01:56:48.978Z,10.60
2019-05-21T01:59:18.243Z,10.60
2019-05-21T02:01:47.605Z,10.60
2019-05-21T02:04:17.014Z,10.60
2019-05-21T02:06:49.268Z,10.60
2019-05-21T02:09:18.706Z,10.60
2019-05-21T02:11:47.761Z,10.60
2019-05-21T02:14:17.061Z,10.60
2019-05-21T02:16:45.861Z,10.60
2019-05-21T02:19:14.923Z,10.60
2019-05-21T02:21:44.253Z,10.60
2019-05-21T02:24:13.750Z,10.50
2019-05-21T02:26:42.562Z,10.60
2019-05-21T02:29:11.353Z,10.50
2019-05-21T02:31:40.527Z,10.50
2019-05-21T02:34:09.608Z,10.50
2019-05-21T02:36:39.296Z,10.40
2019-05-21T02:39:08.549Z,10.40
2019-05-21T02:41:37.866Z,10.40
2019-05-21T02:44:06.995Z,10.40
2019-05-21T02:46:36.685Z,10.40
2019-05-21T02:49:05.850Z,10.40
2019-05-21T02:51:35.110Z,10.40
2019-05-21T02:54:04.360Z,10.30
2019-05-21T02:56:33.567Z,10.30
2019-05-21T02:59:02.734Z,10.30
2019-05-21T03:02:00.015Z,10.30
2019-05-21T03:04:31.036Z,10.30
2019-05-21T03:07:18.334Z,10.30
2019-05-21T03:09:48.485Z,10.30
2019-05-21T03:12:17.926Z,10.30
2019-05-21T03:14:47.415Z,10.30
2019-05-21T03:17:17.212Z,10.30
2019-05-21T03:19:46.837Z,10.30
2019-05-21T03:22:15.875Z,10.30
2019-05-21T03:24:44.921Z,10.30
2019-05-21T03:27:14.127Z,10.30
2019-05-21T03:29:42.901Z,10.30
2019-05-21T03:32:12.413Z,10.20
2019-05-21T03:34:42.161Z,10.20
2019-05-21T03:37:11.154Z,10.20
2019-05-21T03:39:40.473Z,10.20
2019-05-21T03:42:09.562Z,10.20
2019-05-21T03:44:49.330Z,10.20
2019-05-21T03:47:09.573Z,10.20
2019-05-21T03:49:38.719Z,10.20
2019-05-21T03:52:07.819Z,10.20
2019-05-21T03:54:37.241Z,10.20
2019-05-21T03:57:07.059Z,10.30
2019-05-21T03:59:35.887Z,10.20
2019-05-21T04:02:04.827Z,10.20
2019-05-21T04:04:34.292Z,10.20
2019-05-21T04:07:03.718Z,10.20
2019-05-21T04:09:33.127Z,10.20
2019-05-21T04:12:02.736Z,10.20
2019-05-21T04:14:35.713Z,10.20
2019-05-21T04:17:15.181Z,10.20
2019-05-21T04:19:44.090Z,10.20
2019-05-21T04:22:17.146Z,10.20
2019-05-21T04:24:46.338Z,10.30
2019-05-21T04:27:15.555Z,10.30
2019-05-21T04:29:45.041Z,10.30
2019-05-21T04:32:13.910Z,10.30
2019-05-21T04:34:43.667Z,10.20
2019-05-21T04:37:17.077Z,10.30
2019-05-21T04:39:43.587Z,10.30
2019-05-21T04:42:12.500Z,10.30
2019-05-21T04:44:41.395Z,10.30
2019-05-21T04:47:10.683Z,10.40
2019-05-21T04:49:40.265Z,10.40
2019-05-21T04:52:09.794Z,10.40
2019-05-21T04:54:38.993Z,10.40
2019-05-21T04:57:07.778Z,10.40
2019-05-21T04:59:37.580Z,10.40
2019-05-21T05:02:06.354Z,10.40
2019-05-21T05:04:35.522Z,10.30
2019-05-21T05:07:04.749Z,10.30
2019-05-21T05:09:34.697Z,10.30
2019-05-21T05:12:03.491Z,10.30
2019-05-21T05:14:33.067Z,10.40
2019-05-21T05:17:02.367Z,10.40
2019-05-21T05:19:31.813Z,10.40
2019-05-21T05:22:00.698Z,10.40
2019-05-21T05:24:30.189Z,10.40
2019-05-21T05:26:59.593Z,10.40
2019-05-21T05:29:29.095Z,10.40
2019-05-21T05:31:58.499Z,10.40
2019-05-21T05:34:27.846Z,10.40
2019-05-21T05:36:57.092Z,10.40
2019-05-21T05:39:26.716Z,10.30
2019-05-21T05:41:56.091Z,10.30
2019-05-21T05:44:25.130Z,10.30
2019-05-21T05:46:53.914Z,10.30
2019-05-21T05:49:29.944Z,10.30
2019-05-21T05:51:59.354Z,10.30
2019-05-21T05:54:28.508Z,10.30
2019-05-21T05:56:58.150Z,10.30
2019-05-21T05:59:27.572Z,10.30
2019-05-21T06:01:56.628Z,10.30
2019-05-21T06:04:26.271Z,10.30
2019-05-21T06:06:55.297Z,10.30
2019-05-21T06:09:24.349Z,10.30
2019-05-21T06:11:53.382Z,10.30
2019-05-21T06:14:22.676Z,10.40
2019-05-21T06:16:51.765Z,10.40
2019-05-21T06:19:20.631Z,10.40
2019-05-21T06:21:50.226Z,10.40
2019-05-21T06:24:19.637Z,10.40
2019-05-21T06:26:48.442Z,10.40
2019-05-21T06:29:17.337Z,10.40
2019-05-21T06:31:46.748Z,10.40
2019-05-21T06:34:16.465Z,10.40
2019-05-21T06:36:46.248Z,10.40
2019-05-21T06:39:15.322Z,10.40
2019-05-21T06:41:44.565Z,10.40
2019-05-21T06:44:13.981Z,10.40
2019-05-21T06:46:43.158Z,10.50
2019-05-21T06:49:12.366Z,10.50
2019-05-21T06:51:41.416Z,10.50
2019-05-21T06:54:10.637Z,10.50
2019-05-21T06:56:39.783Z,10.50
2019-05-21T06:59:08.646Z,10.50
2019-05-21T07:01:38.390Z,10.50
2019-05-21T07:04:07.836Z,10.50
2019-05-21T07:06:36.650Z,10.50
2019-05-21T07:09:06.554Z,10.50
2019-05-21T07:11:35.958Z,10.50
2019-05-21T07:14:05.256Z,10.50
2019-05-21T07:16:34.301Z,10.60
2019-05-21T07:19:03.495Z,10.50
2019-05-21T07:21:33.275Z,10.50
2019-05-21T07:24:02.066Z,10.60
2019-05-21T07:26:31.189Z,10.60
2019-05-21T07:29:00.067Z,10.60
2019-05-21T07:31:30.089Z,10.60
2019-05-21T07:33:59.773Z,10.60
2019-05-21T07:36:29.123Z,10.60
2019-05-21T07:38:57.902Z,10.70
2019-05-21T07:41:26.712Z,10.60
2019-05-21T07:43:56.319Z,10.60
2019-05-21T07:46:25.855Z,10.70
2019-05-21T07:48:54.906Z,10.70
2019-05-21T07:51:24.227Z,10.80
2019-05-21T07:53:53.507Z,10.80
2019-05-21T07:56:22.670Z,10.90
2019-05-21T07:58:51.734Z,10.90
2019-05-21T08:01:20.533Z,10.90
2019-05-21T08:03:49.596Z,10.90
2019-05-21T08:06:18.859Z,10.90
2019-05-21T08:08:48.058Z,10.90
2019-05-21T08:11:17.752Z,11.00
2019-05-21T08:13:46.864Z,10.90
2019-05-21T08:16:15.934Z,10.90
2019-05-21T08:18:45.447Z,10.90
2019-05-21T08:21:14.655Z,11.00
2019-05-21T08:23:44.344Z,11.00
2019-05-21T08:26:13.789Z,11.10
2019-05-21T08:28:42.661Z,11.20
2019-05-21T08:31:11.475Z,11.20
2019-05-21T08:33:40.539Z,11.30
2019-05-21T08:36:09.954Z,11.30
2019-05-21T08:38:39.308Z,11.20
2019-05-21T08:41:08.621Z,11.20
2019-05-21T08:43:37.848Z,11.20
2019-05-21T08:46:07.089Z,11.30
2019-05-21T08:48:35.877Z,11.30
2019-05-21T08:51:05.368Z,11.30
2019-05-21T08:53:34.835Z,11.20
2019-05-21T08:56:03.728Z,11.20
2019-05-21T08:58:33.115Z,11.20
2019-05-21T09:01:02.368Z,11.30
2019-05-21T09:03:31.416Z,11.30
2019-05-21T09:06:00.582Z,11.20
2019-05-21T09:08:29.870Z,11.20
2019-05-21T09:10:58.957Z,11.30
2019-05-21T09:13:28.406Z,11.30
2019-05-21T09:15:57.522Z,11.30
2019-05-21T09:18:27.164Z,11.30
2019-05-21T09:20:56.313Z,11.40
2019-05-21T09:23:25.690Z,11.40
2019-05-21T09:25:55.220Z,11.50
2019-05-21T09:28:24.548Z,11.50
2019-05-21T09:30:53.666Z,11.50
2019-05-21T09:33:22.785Z,11.50
2019-05-21T09:35:51.899Z,11.60
2019-05-21T09:38:21.330Z,11.60
2019-05-21T09:40:50.178Z,11.60
2019-05-21T09:43:19.601Z,11.60
2019-05-21T09:45:48.859Z,11.70
2019-05-21T09:48:17.663Z,11.70
2019-05-21T09:50:47.393Z,11.90
2019-05-21T09:53:16.215Z,11.90
2019-05-21T09:55:45.335Z,12.00
2019-05-21T09:58:29.839Z,11.80
2019-05-21T10:01:06.794Z,11.90
2019-05-21T10:03:39.250Z,12.00
2019-05-21T10:06:08.421Z,12.10
2019-05-21T10:08:37.677Z,12.10
2019-05-21T10:11:07.118Z,12.20
2019-05-21T10:13:36.358Z,12.10
2019-05-21T10:16:05.569Z,12.20
2019-05-21T10:18:34.858Z,12.20
2019-05-21T10:21:04.110Z,12.20
2019-05-21T10:23:33.629Z,12.30
2019-05-21T10:26:02.566Z,12.30
2019-05-21T10:28:32.143Z,12.00
2019-05-21T10:31:01.741Z,11.90
2019-05-21T10:33:31.395Z,11.80
2019-05-21T10:36:00.526Z,11.80
2019-05-21T10:38:29.888Z,11.80
2019-05-21T10:40:58.979Z,11.80
2019-05-21T10:43:28.406Z,11.80
2019-05-21T10:45:57.534Z,11.90
2019-05-21T10:48:26.742Z,11.80
2019-05-21T10:50:56.252Z,11.80
2019-05-21T10:53:25.746Z,11.90
2019-05-21T10:55:54.830Z,12.00
2019-05-21T10:58:23.771Z,12.10
2019-05-21T11:00:54.418Z,12.10
2019-05-21T11:03:42.450Z,12.20
2019-05-21T11:06:11.794Z,12.30
2019-05-21T11:08:40.869Z,12.30
2019-05-21T11:11:10.532Z,12.40
2019-05-21T11:13:39.395Z,12.40
2019-05-21T11:16:09.039Z,12.40
2019-05-21T11:18:38.406Z,12.40
2019-05-21T11:21:07.594Z,12.40
2019-05-21T11:23:36.919Z,12.40
2019-05-21T11:26:05.929Z,12.50
2019-05-21T11:28:35.398Z,12.50
2019-05-21T11:31:04.681Z,12.70
2019-05-21T11:33:34.105Z,12.80
2019-05-21T11:36:03.475Z,12.80
2019-05-21T11:38:39.826Z,12.80
2019-05-21T11:41:03.773Z,12.70
2019-05-21T11:43:33.188Z,12.60
2019-05-21T11:46:03.096Z,12.50
2019-05-21T11:48:32.330Z,12.50
2019-05-21T11:51:01.746Z,12.30
2019-05-21T11:53:32.010Z,12.20
2019-05-21T11:56:01.369Z,12.20
2019-05-21T11:58:30.166Z,12.20
2019-05-21T12:00:59.399Z,12.20
2019-05-21T12:03:28.700Z,12.20
2019-05-21T12:05:57.502Z,12.20
2019-05-21T12:08:26.994Z,12.20
2019-05-21T12:10:56.374Z,12.20
2019-05-21T12:13:25.486Z,12.10
2019-05-21T12:15:54.900Z,12.10
2019-05-21T12:18:24.586Z,12.10
2019-05-21T12:20:53.403Z,12.10
2019-05-21T12:23:22.471Z,12.10
2019-05-21T12:25:51.286Z,12.10
2019-05-21T12:28:20.442Z,12.00
2019-05-21T12:30:49.659Z,12.10
2019-05-21T12:33:18.756Z,12.10
2019-05-21T12:35:48.215Z,12.10
2019-05-21T12:38:17.930Z,12.20
2019-05-21T12:40:46.891Z,12.30
2019-05-21T12:43:15.965Z,12.40
2019-05-21T12:45:44.950Z,12.40
2019-05-21T12:48:14.611Z,12.50
2019-05-21T12:50:44.080Z,12.60
2019-05-21T12:53:16.569Z,12.60
2019-05-21T12:55:44.146Z,12.60
2019-05-21T12:58:13.196Z,12.50
2019-05-21T13:00:42.626Z,12.60
2019-05-21T13:03:11.638Z,12.60
2019-05-21T13:05:41.190Z,12.50
2019-05-21T13:08:10.685Z,12.50
2019-05-21T13:10:40.055Z,12.40
2019-05-21T13:13:08.921Z,12.30
2019-05-21T13:15:38.113Z,12.20
2019-05-21T13:18:07.450Z,12.20
2019-05-21T13:20:36.297Z,12.20
2019-05-21T13:23:05.568Z,12.10
2019-05-21T13:25:35.147Z,12.10
2019-05-21T13:28:04.858Z,12.20
2019-05-21T13:30:33.950Z,12.20
2019-05-21T13:33:03.151Z,12.20
2019-05-21T13:35:32.335Z,12.20
2019-05-21T13:38:01.388Z,12.20
2019-05-21T13:40:31.676Z,12.20
2019-05-21T13:43:00.876Z,12.30
2019-05-21T13:45:29.731Z,12.30
2019-05-21T13:47:58.909Z,12.30
2019-05-21T13:50:28.129Z,12.30
2019-05-21T13:52:57.117Z,12.30
2019-05-21T13:55:26.161Z,12.30
2019-05-21T13:57:55.861Z,12.30
2019-05-21T14:00:34.336Z,12.30
2019-05-21T14:03:03.614Z,12.20
2019-05-21T14:05:32.912Z,12.10
2019-05-21T14:08:02.098Z,12.10
2019-05-21T14:10:31.834Z,12.10
2019-05-21T14:13:01.053Z,12.10
2019-05-21T14:15:30.030Z,12.10
2019-05-21T14:17:59.240Z,12.00
2019-05-21T14:20:28.353Z,12.00
2019-05-21T14:22:57.520Z,12.00
2019-05-21T14:25:26.701Z,12.00
2019-05-21T14:27:55.930Z,12.00
2019-05-21T14:30:25.114Z,12.00
2019-05-21T14:32:54.386Z,12.00
2019-05-21T14:35:23.242Z,12.00
2019-05-21T14:37:52.494Z,12.00
2019-05-21T14:40:31.564Z,12.00
2019-05-21T14:43:00.154Z,12.00
2019-05-21T14:45:29.958Z,12.00
2019-05-21T14:47:57.382Z,12.00
2019-05-21T14:50:26.768Z,12.00
2019-05-21T14:52:56.294Z,12.00
2019-05-21T14:55:25.476Z,11.90
2019-05-21T14:57:58.305Z,11.90
2019-05-21T15:00:30.377Z,11.80
2019-05-21T15:02:59.255Z,11.90
2019-05-21T15:05:28.434Z,11.90
2019-05-21T15:07:57.658Z,11.90
2019-05-21T15:10:26.826Z,11.90
2019-05-21T15:12:56.229Z,12.00
2019-05-21T15:15:25.030Z,11.90
2019-05-21T15:17:54.295Z,11.80
2019-05-21T15:20:37.367Z,11.90
2019-05-21T15:23:06.546Z,11.80
2019-05-21T15:25:35.738Z,11.80
2019-05-21T15:28:04.935Z,11.80
2019-05-21T15:30:34.338Z,11.80
2019-05-21T15:33:03.754Z,11.80
2019-05-21T15:35:32.912Z,11.80
2019-05-21T15:38:02.138Z,11.80
2019-05-21T15:40:31.255Z,11.80
2019-05-21T15:43:00.438Z,11.70
2019-05-21T15:45:29.959Z,11.70
2019-05-21T15:47:59.798Z,11.70
2019-05-21T15:50:29.173Z,11.70
2019-05-21T15:52:58.293Z,11.80
2019-05-21T15:55:27.653Z,11.70
2019-05-21T15:57:56.957Z,11.60
2019-05-21T16:00:26.089Z,11.60
2019-05-21T16:02:55.472Z,11.60
2019-05-21T16:05:25.037Z,11.60
2019-05-21T16:07:54.777Z,11.60
2019-05-21T16:10:23.969Z,11.70
2019-05-21T16:12:54.163Z,11.70
2019-05-21T16:15:23.411Z,11.70
2019-05-21T16:17:52.185Z,11.70
2019-05-21T16:20:21.456Z,11.70
2019-05-21T16:22:50.496Z,11.70
2019-05-21T16:25:19.939Z,11.80
2019-05-21T16:27:49.238Z,11.80
2019-05-21T16:30:18.764Z,11.80
2019-05-21T16:32:47.762Z,11.80
2019-05-21T16:35:17.161Z,11.80
2019-05-21T16:37:46.688Z,11.80
2019-05-21T16:40:16.997Z,11.80
2019-05-21T16:42:46.099Z,11.80
2019-05-21T16:45:15.987Z,11.80
2019-05-21T16:47:46.853Z,11.80
2019-05-21T16:50:16.486Z,11.80
2019-05-21T16:52:46.156Z,11.80
2019-05-21T16:55:15.594Z,11.80
2019-05-21T16:57:44.982Z,11.80
2019-05-21T17:00:17.201Z,11.80
2019-05-21T17:02:46.513Z,11.80
2019-05-21T17:05:16.378Z,11.80
2019-05-21T17:07:45.594Z,11.70
2019-05-21T17:10:14.898Z,11.80
2019-05-21T17:12:44.350Z,11.80
2019-05-21T17:15:13.823Z,11.80
2019-05-21T17:17:43.698Z,11.80
2019-05-21T17:20:15.538Z,11.80
2019-05-21T17:22:44.561Z,11.80
2019-05-21T17:25:13.871Z,11.80
2019-05-21T17:27:43.433Z,11.80
2019-05-21T17:30:13.090Z,11.80
2019-05-21T17:32:42.417Z,11.80
2019-05-21T17:35:11.696Z,11.80
2019-05-21T17:37:40.994Z,11.80
2019-05-21T17:40:11.330Z,11.70
2019-05-21T17:42:40.793Z,11.70
2019-05-21T17:45:10.915Z,11.70
2019-05-21T17:47:40.445Z,11.70
2019-05-21T17:50:09.795Z,11.60
2019-05-21T17:52:39.146Z,11.60
2019-05-21T17:55:08.322Z,11.60
2019-05-21T17:57:38.054Z,11.60
2019-05-21T18:00:07.950Z,11.60
2019-05-21T18:02:37.345Z,11.60
2019-05-21T18:05:07.245Z,11.60
2019-05-21T18:07:36.950Z,11.70
2019-05-21T18:10:06.754Z,11.70
2019-05-21T18:12:36.499Z,11.70
2019-05-21T18:15:08.868Z,11.60
2019-05-21T18:17:38.379Z,11.60
2019-05-21T18:20:08.697Z,11.60
2019-05-21T18:22:39.065Z,11.60
2019-05-21T18:25:08.187Z,11.60
2019-05-21T18:27:37.832Z,11.50
2019-05-21T18:30:07.929Z,11.50
2019-05-21T18:32:37.684Z,11.50
2019-05-21T18:35:07.398Z,11.50
2019-05-21T18:37:36.742Z,11.50
2019-05-21T18:40:07.057Z,11.40
2019-05-21T18:42:36.521Z,11.40
2019-05-21T18:45:05.562Z,11.40
2019-05-21T18:47:34.802Z,11.40
2019-05-21T18:50:04.361Z,11.30
2019-05-21T18:52:33.613Z,11.30
2019-05-21T18:55:03.034Z,11.30
2019-05-21T18:57:32.093Z,11.20
2019-05-21T19:00:01.818Z,11.20
2019-05-21T19:02:31.323Z,11.10
2019-05-21T19:05:00.630Z,11.10
2019-05-21T19:07:29.543Z,11.10
2019-05-21T19:10:00.840Z,11.10
2019-05-21T19:12:38.107Z,11.10
2019-05-21T19:15:01.003Z,11.10
2019-05-21T19:17:35.645Z,11.10
2019-05-21T19:20:01.943Z,11.10
2019-05-21T19:22:31.412Z,11.10
2019-05-21T19:25:01.081Z,11.10
2019-05-21T19:27:30.306Z,11.00
2019-05-21T19:29:59.453Z,11.00
2019-05-21T19:32:29.456Z,11.00
2019-05-21T19:34:59.404Z,11.00
2019-05-21T19:37:30.878Z,11.00
2019-05-21T19:40:00.387Z,10.90
2019-05-21T19:42:29.782Z,10.90
2019-05-21T19:44:58.846Z,10.90
2019-05-21T19:47:28.363Z,10.90
2019-05-21T19:49:57.239Z,10.90
2019-05-21T19:52:27.310Z,10.90
2019-05-21T19:54:58.603Z,10.80
2019-05-21T19:57:29.795Z,10.80
2019-05-21T19:59:59.374Z,10.80
2019-05-21T20:02:30.936Z,10.80
2019-05-21T20:05:01.698Z,10.80
2019-05-21T20:07:31.180Z,10.80
2019-05-21T20:10:04.270Z,10.80
2019-05-21T20:12:35.197Z,10.80
2019-05-21T20:15:04.958Z,10.80
2019-05-21T20:17:35.227Z,10.80
2019-05-21T20:20:05.475Z,10.80
2019-05-21T20:22:34.857Z,10.80
2019-05-21T20:25:04.537Z,10.80
2019-05-21T20:27:35.290Z,10.80
2019-05-21T20:30:12.597Z,10.80
2019-05-21T20:32:38.955Z,10.80
2019-05-21T20:35:08.873Z,10.80
2019-05-21T20:37:40.454Z,10.80
2019-05-21T20:40:10.667Z,10.80
2019-05-21T20:42:40.538Z,10.80
2019-05-21T20:45:11.729Z,10.80
2019-05-21T20:47:41.657Z,10.80
2019-05-21T20:50:12.776Z,10.80
2019-05-21T20:52:42.636Z,10.80
2019-05-21T20:55:13.516Z,10.80
2019-05-21T20:57:43.939Z,10.80
2019-05-21T21:00:17.940Z,10.80
2019-05-21T21:02:48.681Z,10.80
2019-05-21T21:05:19.340Z,10.80
2019-05-21T21:07:51.089Z,10.70
2019-05-21T21:10:21.294Z,10.70
2019-05-21T21:12:52.674Z,10.70
2019-05-21T21:15:23.211Z,10.70
2019-05-21T21:17:54.895Z,10.70
2019-05-21T21:20:25.738Z,10.70
2019-05-21T21:22:56.394Z,10.70
2019-05-21T21:25:26.428Z,10.70
2019-05-21T21:27:56.275Z,10.70
2019-05-21T21:30:25.867Z,10.70
2019-05-21T21:32:58.141Z,10.70
2019-05-21T21:35:29.614Z,10.70
2019-05-21T21:38:00.988Z,10.70
2019-05-21T21:40:30.839Z,10.70
2019-05-21T21:43:00.427Z,10.70
2019-05-21T21:45:29.821Z,10.70
2019-05-21T21:47:58.950Z,10.70
2019-05-21T21:50:29.792Z,10.70
2019-05-21T21:52:59.642Z,10.70
2019-05-21T21:55:31.814Z,10.70
2019-05-21T21:58:01.019Z,10.70
2019-05-21T22:01:37.962Z,10.70
2019-05-21T22:04:09.683Z,10.70
2019-05-21T22:06:41.522Z,10.70
2019-05-21T22:09:19.104Z,10.70
2019-05-21T22:11:49.901Z,10.70
2019-05-21T22:14:20.455Z,10.70
2019-05-21T22:16:51.722Z,10.70
2019-05-21T22:19:22.781Z,10.70
2019-05-21T22:21:52.955Z,10.70
2019-05-21T22:24:23.003Z,10.70
2019-05-21T22:26:52.536Z,10.70
2019-05-21T22:29:22.080Z,10.70
2019-05-21T22:31:51.749Z,10.70
2019-05-21T22:34:21.343Z,10.70
2019-05-21T22:36:50.726Z,10.70
2019-05-21T22:39:30.002Z,10.70
2019-05-21T22:42:01.202Z,10.70
2019-05-21T22:44:31.379Z,10.60
2019-05-21T22:47:02.467Z,10.60
2019-05-21T22:49:33.997Z,10.60
2019-05-21T22:52:03.497Z,10.60
2019-05-21T22:54:33.122Z,10.60
2019-05-21T22:57:04.349Z,10.60
2019-05-21T22:59:33.741Z,10.60
2019-05-21T23:02:05.029Z,10.60
2019-05-21T23:04:35.693Z,10.60
2019-05-21T23:07:05.544Z,10.60
2019-05-21T23:09:35.121Z,10.60
2019-05-21T23:12:05.069Z,10.70
2019-05-21T23:14:34.959Z,10.70
2019-05-21T23:17:07.939Z,10.70
2019-05-21T23:19:38.780Z,10.70
2019-05-21T23:22:09.779Z,10.70
2019-05-21T23:24:40.539Z,10.70
2019-05-21T23:27:13.711Z,10.70
2019-05-21T23:29:44.798Z,10.70
2019-05-21T23:32:14.295Z,10.60
2019-05-21T23:34:44.451Z,10.60
2019-05-21T23:37:18.265Z,10.60
2019-05-21T23:39:49.014Z,10.60
2019-05-21T23:42:29.033Z,10.60
2019-05-21T23:44:49.952Z,10.60
2019-05-21T23:47:20.555Z,10.60
2019-05-21T23:49:50.408Z,10.60
2019-05-21T23:52:19.769Z,10.60
2019-05-21T23:54:49.998Z,10.60
2019-05-21T23:57:21.628Z,10.60
2019-05-21T23:59:52.306Z,10.60
